Time;durP1;ratioP1;P1;durP2;ratioP2;P2;SDS_P1;SDS_P2;PMS_P1;PMS_P2;Temp;Humidity;BMP_temperature;BMP_pressure;BME280_temperature;BME280_humidity;BME280_pressure;Samples;Min_cycle;Max_cycle;Signal;HPM_P1;HPM_P2
2021/12/18 00:01:33;;;;;;;6.22;3.45;;;;;;;0.79;75.91;99284.22;4993146;28;20054;-57
2021/12/18 00:04:00;;;;;;;56.92;16.52;;;;;;;0.82;75.64;99283.69;4992704;28;20093;-60
2021/12/18 00:06:27;;;;;;;10.95;5.85;;;;;;;0.86;75.42;99279.28;4993034;28;20052;-58
2021/12/18 00:08:55;;;;;;;6.78;3.97;;;;;;;0.85;75.45;99283.13;4993279;28;20054;-58
2021/12/18 00:11:22;;;;;;;8.07;3.65;;;;;;;0.84;75.44;99284.22;4993136;28;20076;-64
2021/12/18 00:13:50;;;;;;;7.70;3.40;;;;;;;0.86;75.82;99278.47;4992771;28;20051;-64
2021/12/18 00:16:17;;;;;;;6.45;3.17;;;;;;;0.86;75.57;99282.00;4993290;28;20089;-64
2021/12/18 00:18:46;;;;;;;5.55;3.05;;;;;;;0.88;75.91;99288.03;4992033;28;20540;-64
2021/12/18 00:21:17;;;;;;;6.20;3.10;;;;;;;0.84;76.01;99284.22;4993250;28;20089;-64
2021/12/18 00:23:44;;;;;;;;;;;;;;;0.82;76.12;99285.59;4991444;28;20058;-65
2021/12/18 00:26:11;;;;;;;6.00;3.08;;;;;;;0.79;75.58;99265.06;4992857;28;19926;-64
2021/12/18 00:28:38;;;;;;;6.95;3.15;;;;;;;0.75;75.86;99271.38;4992478;28;20140;-64
2021/12/18 00:31:05;;;;;;;5.32;2.92;;;;;;;0.81;76.10;99281.22;4993252;28;20057;-64
2021/12/18 00:33:32;;;;;;;6.35;3.30;;;;;;;0.87;76.24;99275.47;4993298;28;20097;-63
2021/12/18 00:35:59;;;;;;;4.80;2.92;;;;;;;0.85;75.73;99287.75;4990466;28;20505;-64
2021/12/18 00:38:30;;;;;;;6.22;3.45;;;;;;;0.78;76.02;99282.59;4992889;28;20050;-64
2021/12/18 00:41:12;;;;;;;7.43;3.03;;;;;;;0.83;76.07;99285.31;4992362;28;20109;-63
2021/12/18 00:44:01;;;;;;;5.53;3.05;;;;;;;0.84;75.91;99278.75;4992090;28;20514;-62
2021/12/18 00:46:29;;;;;;;6.38;3.25;;;;;;;0.84;75.93;99277.91;4992281;28;20085;-63
2021/12/18 00:48:56;;;;;;;7.38;3.25;;;;;;;0.82;75.51;99283.69;4990373;28;20042;-63
2021/12/18 00:51:24;;;;;;;6.10;3.40;;;;;;;0.82;75.90;99283.69;4992859;28;20081;-61
2021/12/18 00:53:51;;;;;;;10.00;3.40;;;;;;;0.81;75.93;99276.56;4992303;28;20413;-61
2021/12/18 00:56:19;;;;;;;6.45;3.45;;;;;;;0.84;75.76;99277.91;4992949;28;20050;-61
2021/12/18 00:58:48;;;;;;;8.00;3.17;;;;;;;0.87;75.74;99286.41;4991058;28;20413;-62
2021/12/18 01:01:20;;;;;;;9.13;4.32;;;;;;;0.84;75.73;99280.66;4988083;28;20473;-61
2021/12/18 01:03:50;;;;;;;5.72;3.17;;;;;;;0.79;75.74;99292.44;4992078;28;20144;-61
2021/12/18 01:06:19;;;;;;;4.53;2.83;;;;;;;0.72;76.45;99299.28;4989006;28;20081;-61
2021/12/18 01:08:49;;;;;;;6.03;3.17;;;;;;;0.72;76.24;99294.66;4992029;28;20074;-61
2021/12/18 01:14:10;;;;;;;5.47;2.97;;;;;;;0.85;76.30;99294.06;4992029;28;20051;-62
2021/12/18 01:16:55;;;;;;;5.50;3.10;;;;;;;0.85;75.82;99299.56;4992046;28;20069;-61
2021/12/18 01:24:53;;;;;;;5.93;2.90;;;;;;;0.72;76.39;99289.16;4990587;28;20047;-62
2021/12/18 01:27:21;;;;;;;6.13;2.63;;;;;;;0.77;76.43;99291.09;4992363;28;20086;-62
2021/12/18 01:29:49;;;;;;;4.97;2.88;;;;;;;0.75;76.01;99283.16;4991930;28;20042;-63
2021/12/18 01:32:16;;;;;;;4.65;2.75;;;;;;;0.73;76.60;99290.81;4995912;28;20054;-62
2021/12/18 01:34:44;;;;;;;5.47;2.97;;;;;;;0.65;76.66;99288.59;4996157;28;20054;-63
2021/12/18 01:37:11;;;;;;;5.68;3.20;;;;;;;0.66;76.25;99282.06;4993049;28;20522;-62
2021/12/18 01:39:38;;;;;;;4.53;2.80;;;;;;;0.69;76.29;99289.72;4994103;28;20056;-62
2021/12/18 01:45:13;;;;;;;6.68;2.70;;;;;;;0.78;76.67;99287.25;4995541;28;20116;-62
2021/12/18 01:53:20;;;;;;;4.20;2.33;;;;;;;0.72;76.05;99285.59;4995812;28;19932;-62
2021/12/18 01:55:50;;;;;;;6.07;3.20;;;;;;;0.71;75.81;99290.25;4995447;28;21090;-62
2021/12/18 01:58:21;;;;;;;5.18;2.63;;;;;;;0.71;75.97;99292.97;4995516;28;20054;-62
2021/12/18 02:00:51;;;;;;;5.38;2.70;;;;;;;0.75;75.91;99296.84;4993267;28;20153;-62
2021/12/18 02:03:19;;;;;;;3.77;2.23;;;;;;;0.72;76.20;99299.28;4995504;28;20057;-62
2021/12/18 02:05:50;;;;;;;5.55;2.67;;;;;;;0.78;75.68;99293.53;4995230;28;20050;-62
2021/12/18 02:08:23;;;;;;;5.20;3.00;;;;;;;0.74;75.76;99297.91;4995722;28;20128;-62
2021/12/18 02:11:01;;;;;;;5.30;2.67;;;;;;;0.73;75.74;99301.75;4995214;28;20046;-62
2021/12/18 02:21:38;;;;;;;4.68;2.80;;;;;;;0.75;75.12;99298.75;4992851;28;20050;-62
2021/12/18 02:24:06;;;;;;;5.30;2.97;;;;;;;0.70;75.86;99299.56;4992965;28;20082;-62
2021/12/18 02:26:33;;;;;;;5.95;2.55;;;;;;;0.73;75.91;99309.97;4995031;28;20061;-60
2021/12/18 02:29:03;;;;;;;7.57;2.30;;;;;;;0.60;75.65;99313.25;4995423;28;20046;-60
2021/12/18 02:31:32;;;;;;;4.25;2.35;;;;;;;0.31;76.99;99309.41;4990981;28;20481;-58
2021/12/18 02:33:59;;;;;;;5.25;2.58;;;;;;;0.23;77.44;99318.13;4994879;28;20054;-59
2021/12/18 02:36:26;;;;;;;6.72;2.53;;;;;;;0.25;77.58;99306.94;4993017;28;20040;-59
2021/12/18 02:41:40;;;;;;;5.13;2.75;;;;;;;0.25;77.31;99321.44;4993099;28;20460;-57
2021/12/18 02:44:10;;;;;;;4.13;1.70;;;;;;;0.24;77.66;99317.06;4994448;28;20112;-58
2021/12/18 02:46:39;;;;;;;6.07;1.60;;;;;;;0.23;77.43;99320.88;4995275;28;20150;-60
2021/12/18 02:49:12;;;;;;;2.60;1.38;;;;;;;0.24;76.59;99329.91;4992603;28;20146;-56
2021/12/18 02:51:39;;;;;;;2.65;1.55;;;;;;;0.30;76.23;99326.09;4991803;28;20054;-55
2021/12/18 02:54:07;;;;;;;3.33;1.27;;;;;;;0.36;76.11;99325.84;4994310;28;20145;-58
2021/12/18 02:56:35;;;;;;;2.08;1.08;;;;;;;0.39;75.57;99324.47;4994513;28;20054;-57
2021/12/18 02:59:06;;;;;;;3.85;1.17;;;;;;;0.35;75.09;99329.66;4994570;28;20057;-59
2021/12/18 03:01:35;;;;;;;3.75;1.38;;;;;;;0.23;75.17;99320.88;4990762;28;20069;-59
2021/12/18 03:04:12;;;;;;;3.33;1.17;;;;;;;0.15;74.46;99326.91;4994584;28;20046;-59
2021/12/18 03:06:44;;;;;;;1.83;0.95;;;;;;;0.15;74.29;99326.91;4994762;28;20050;-58
2021/12/18 03:09:45;;;;;;;1.30;0.80;;;;;;;0.12;74.31;99321.97;4994359;28;20058;-56
2021/12/18 03:25:34;;;;;;;2.53;1.00;;;;;;;0.00;72.98;99319.47;4993915;28;20141;-58
2021/12/18 03:28:04;;;;;;;1.92;1.00;;;;;;;0.04;73.17;99330.69;4992649;28;20046;-58
2021/12/18 03:30:32;;;;;;;2.50;1.33;;;;;;;0.05;72.65;99326.06;4994376;28;20141;-59
2021/12/18 03:33:00;;;;;;;1.38;0.90;;;;;;;0.12;72.38;99327.44;4993670;28;20304;-58
2021/12/18 03:35:27;;;;;;;2.30;1.00;;;;;;;0.17;72.29;99341.09;4993798;28;20046;-59
2021/12/18 03:37:54;;;;;;;1.40;0.85;;;;;;;0.19;72.12;99341.66;4993750;28;20145;-59
2021/12/18 03:40:23;;;;;;;1.52;0.80;;;;;;;0.11;71.79;99336.72;4993885;28;20050;-58
2021/12/18 03:42:50;;;;;;;1.70;0.98;;;;;;;0.09;71.65;99344.38;4992920;28;20062;-57
2021/12/18 03:45:19;;;;;;;1.25;0.75;;;;;;;0.15;71.54;99332.38;4993560;28;20556;-56
2021/12/18 03:47:48;;;;;;;2.67;1.05;;;;;;;0.14;71.62;99341.66;4991372;28;20054;-56
2021/12/18 03:50:16;;;;;;;2.05;0.80;;;;;;;0.12;70.63;99343.84;4991829;28;20046;-57
2021/12/18 03:52:43;;;;;;;1.02;0.60;;;;;;;0.12;70.08;99349.31;4992923;28;20517;-59
2021/12/18 03:55:10;;;;;;;1.38;0.60;;;;;;;0.11;70.59;99342.19;4993635;28;20057;-59
2021/12/18 03:57:37;;;;;;;0.80;0.60;;;;;;;0.14;69.76;99355.31;4993251;28;20074;-60
2021/12/18 04:00:08;;;;;;;1.05;0.77;;;;;;;0.06;69.79;99357.75;4992024;28;20517;-59
2021/12/18 04:02:35;;;;;;;1.80;0.95;;;;;;;0.06;69.59;99360.50;4991556;28;20133;-59
2021/12/18 04:05:03;;;;;;;1.42;0.80;;;;;;;0.12;69.57;99349.31;4993326;28;20077;-59
2021/12/18 04:07:30;;;;;;;2.13;1.00;;;;;;;0.09;69.22;99349.03;4993780;28;20038;-59
2021/12/18 04:09:56;;;;;;;1.25;0.70;;;;;;;0.06;69.55;99364.06;4993021;28;20584;-58
2021/12/18 04:12:23;;;;;;;1.83;0.80;;;;;;;0.03;69.25;99363.78;4993371;28;20077;-58
2021/12/18 04:14:50;;;;;;;1.88;0.80;;;;;;;0.07;69.02;99354.75;4993193;28;20061;-58
2021/12/18 04:17:17;;;;;;;1.42;0.80;;;;;;;0.13;68.78;99355.59;4993518;28;20053;-59
2021/12/18 04:19:44;;;;;;;0.80;0.70;;;;;;;0.18;68.55;99363.81;4992405;28;20476;-59
2021/12/18 04:22:12;;;;;;;3.53;0.70;;;;;;;0.14;68.43;99358.06;4992805;28;20046;-56
2021/12/18 04:24:38;;;;;;;1.58;0.70;;;;;;;0.09;68.87;99358.06;4990656;28;20157;-59
2021/12/18 04:27:06;;;;;;;1.20;0.80;;;;;;;0.04;68.17;99352.56;4993089;28;20034;-58
2021/12/18 04:29:32;;;;;;;1.75;1.00;;;;;;;0.08;68.64;99348.19;4992324;28;20052;-57
2021/12/18 04:32:00;;;;;;;1.08;0.70;;;;;;;0.13;68.56;99356.41;4993096;28;20057;-57
2021/12/18 04:34:27;;;;;;;2.20;0.90;;;;;;;0.14;68.59;99357.25;4992364;28;20046;-60
2021/12/18 04:36:54;;;;;;;1.05;0.80;;;;;;;0.10;68.86;99356.97;4992846;28;20054;-58
2021/12/18 04:39:21;;;;;;;1.60;0.90;;;;;;;0.00;68.98;99363.22;4991438;28;20057;-59
2021/12/18 04:41:51;;;;;;;1.08;0.70;;;;;;;-0.09;69.23;99364.00;4992786;28;20054;-56
2021/12/18 04:44:18;;;;;;;1.38;0.70;;;;;;;-0.10;69.91;99356.88;4980422;28;20522;-59
2021/12/18 04:46:45;;;;;;;1.02;0.70;;;;;;;-0.19;69.79;99363.97;4969769;28;20105;-59
2021/12/18 04:49:13;;;;;;;0.82;0.65;;;;;;;-0.17;70.03;99367.25;4971527;28;20050;-62
2021/12/18 04:51:41;;;;;;;1.67;0.80;;;;;;;-0.22;70.21;99364.50;4969580;28;20055;-58
2021/12/18 04:54:08;;;;;;;3.50;0.73;;;;;;;-0.29;70.53;99366.66;4971657;28;20422;-59
2021/12/18 04:56:35;;;;;;;1.63;0.80;;;;;;;-0.27;70.08;99365.28;4969484;28;20494;-57
2021/12/18 04:59:04;;;;;;;4.00;0.80;;;;;;;-0.22;70.05;99369.97;4969970;28;20134;-58
2021/12/18 05:01:36;;;;;;;1.00;0.70;;;;;;;-0.27;69.61;99357.09;4969455;28;20556;-58
2021/12/18 05:04:05;;;;;;;2.67;0.90;;;;;;;-0.26;70.15;99357.94;4971131;28;20082;-59
2021/12/18 05:06:36;;;;;;;6.97;3.33;;;;;;;-0.26;69.88;99358.72;4969062;28;20058;-56
2021/12/18 05:09:04;;;;;;;1.60;0.90;;;;;;;-0.20;69.63;99362.31;4971280;28;20055;-59
2021/12/18 05:11:31;;;;;;;1.52;0.70;;;;;;;-0.24;69.61;99362.03;4969054;28;20139;-59
2021/12/18 05:13:58;;;;;;;1.65;1.00;;;;;;;-0.25;69.67;99365.03;4969898;28;20478;-60
2021/12/18 05:16:25;;;;;;;1.38;0.80;;;;;;;-0.29;69.67;99374.84;4968956;28;20061;-58
2021/12/18 05:18:52;;;;;;;2.25;1.10;;;;;;;-0.31;69.78;99366.09;4971213;28;20117;-57
2021/12/18 05:21:19;;;;;;;1.98;0.90;;;;;;;-0.31;68.68;99377.03;4969341;28;20076;-59
2021/12/18 05:23:47;;;;;;;1.13;0.68;;;;;;;-0.35;68.80;99375.94;4967691;28;20458;-59
2021/12/18 05:26:14;;;;;;;2.15;1.10;;;;;;;-0.32;68.91;99369.94;4972442;28;20050;-60
2021/12/18 05:28:40;;;;;;;2.05;0.98;;;;;;;-0.31;68.53;99368.84;4970080;28;20582;-60
2021/12/18 05:31:09;;;;;;;3.00;1.20;;;;;;;-0.30;68.11;99371.28;4971349;28;20066;-63
2021/12/18 05:33:36;;;;;;;3.28;1.67;;;;;;;-0.31;68.36;99374.28;4970686;28;20091;-61
2021/12/18 05:36:13;;;;;;;4.18;1.33;;;;;;;-0.30;68.25;99374.03;4971294;28;20061;-60
2021/12/18 05:38:40;;;;;;;3.05;1.35;;;;;;;-0.33;67.88;99368.25;4970312;28;20081;-61
2021/12/18 05:41:08;;;;;;;3.63;1.60;;;;;;;-0.37;67.70;99375.34;4971342;28;20051;-61
2021/12/18 05:43:35;;;;;;;3.30;1.60;;;;;;;-0.36;68.26;99374.25;4976835;28;20514;-60
2021/12/18 05:46:02;;;;;;;6.05;1.55;;;;;;;-0.47;67.84;99367.94;4992121;28;20053;-60
2021/12/18 05:48:28;;;;;;;5.70;1.70;;;;;;;-0.48;67.66;99362.72;4990423;28;20054;-60
2021/12/18 05:50:55;;;;;;;5.15;1.75;;;;;;;-0.45;67.74;99373.97;4990799;28;20081;-61
2021/12/18 05:53:22;;;;;;;4.00;1.83;;;;;;;-0.53;67.67;99368.19;4991766;28;20133;-61
2021/12/18 05:55:49;;;;;;;4.53;1.52;;;;;;;-0.56;67.53;99364.06;4990796;28;20062;-59
2021/12/18 05:58:16;;;;;;;2.50;1.15;;;;;;;-0.56;67.62;99368.72;4992043;28;20058;-60
2021/12/18 06:00:43;;;;;;;3.53;1.75;;;;;;;-0.53;67.60;99379.13;4991997;28;20074;-60
2021/12/18 06:03:10;;;;;;;4.93;1.73;;;;;;;-0.53;67.22;99357.25;4989929;28;20139;-64
2021/12/18 06:05:37;;;;;;;6.25;1.90;;;;;;;-0.53;67.15;99373.66;4992202;28;20149;-64
2021/12/18 06:08:09;;;;;;;4.50;2.03;;;;;;;-0.48;67.50;99376.38;4991538;28;20110;-60
2021/12/18 06:10:37;;;;;;;8.13;2.78;;;;;;;-0.47;66.82;99372.59;4988727;28;20053;-61
2021/12/18 06:13:04;;;;;;;5.30;2.30;;;;;;;-0.45;66.97;99373.13;4991647;28;20061;-60
2021/12/18 06:15:32;;;;;;;8.45;2.40;;;;;;;-0.46;66.89;99368.75;4991889;28;20054;-61
2021/12/18 06:18:00;;;;;;;3.22;1.70;;;;;;;-0.47;67.08;99378.84;4995459;28;20097;-61
2021/12/18 06:20:28;;;;;;;4.90;1.85;;;;;;;-0.45;67.24;99384.06;4994895;28;20066;-60
2021/12/18 06:22:56;;;;;;;6.68;2.17;;;;;;;-0.45;66.98;99381.31;4995199;28;20081;-59
2021/12/18 06:25:23;;;;;;;9.10;2.20;;;;;;;-0.44;66.29;99372.06;4992903;28;20074;-63
2021/12/18 06:27:50;;;;;;;4.60;1.77;;;;;;;-0.46;66.20;99374.22;4995413;28;20046;-65
2021/12/18 06:30:18;;;;;;;4.22;1.48;;;;;;;-0.46;65.67;99374.22;4994783;28;20050;-60
2021/12/18 06:32:45;;;;;;;4.97;1.33;;;;;;;-0.54;65.01;99372.00;4995265;28;20057;-64
2021/12/18 06:35:12;;;;;;;3.25;1.23;;;;;;;-0.58;64.85;99376.34;4994630;28;20451;-59
2021/12/18 06:37:40;;;;;;;2.95;1.00;;;;;;;-0.59;65.16;99374.72;4993078;28;20168;-58
2021/12/18 06:40:07;;;;;;;4.40;1.40;;;;;;;-0.54;65.76;99382.91;4994731;28;20085;-61
2021/12/18 06:42:40;;;;;;;2.63;1.30;;;;;;;-0.52;65.11;99370.66;4994829;28;20050;-60
2021/12/18 06:45:08;;;;;;;2.00;1.00;;;;;;;-0.52;65.07;99367.91;4994318;28;20112;-60
2021/12/18 06:47:35;;;;;;;1.77;1.00;;;;;;;-0.51;64.93;99371.44;4994871;28;20058;-61
2021/12/18 06:50:04;;;;;;;5.95;1.42;;;;;;;-0.61;64.00;99377.72;4992881;28;20058;-60
2021/12/18 06:52:31;;;;;;;4.53;1.13;;;;;;;-0.61;64.34;99371.41;4994789;28;20054;-61
2021/12/18 06:54:57;;;;;;;3.30;0.80;;;;;;;-0.57;63.61;99365.16;4993076;28;20102;-61
2021/12/18 06:57:24;;;;;;;2.95;0.77;;;;;;;-0.62;63.65;99377.97;4990871;28;20082;-60
2021/12/18 06:59:51;;;;;;;5.38;0.60;;;;;;;-0.63;63.45;99379.03;4994628;28;20065;-61
2021/12/18 07:02:19;;;;;;;0.50;0.50;;;;;;;-0.68;63.29;99354.44;4982775;28;20042;-61
2021/12/18 07:04:46;;;;;;;0.85;0.57;;;;;;;-0.86;62.44;99374.78;4994777;28;20046;-60
2021/12/18 07:07:13;;;;;;;0.40;0.40;;;;;;;-0.86;62.47;99363.88;4994449;28;20050;-61
2021/12/18 07:09:40;;;;;;;0.75;0.40;;;;;;;-0.77;62.32;99377.88;4994516;28;20146;-60
2021/12/18 07:12:10;;;;;;;5.35;0.60;;;;;;;-0.64;61.96;99372.78;4994063;28;20046;-59
2021/12/18 07:14:38;;;;;;;1.63;0.70;;;;;;;-0.45;61.99;99376.69;4994462;28;20054;-60
2021/12/18 07:17:05;;;;;;;0.90;0.55;;;;;;;-0.21;61.65;99369.69;4993826;28;20050;-58
2021/12/18 07:19:32;;;;;;;0.63;0.50;;;;;;;-0.12;61.34;99375.47;4994140;28;20065;-60
2021/12/18 07:21:59;;;;;;;1.45;0.60;;;;;;;-0.04;61.84;99377.69;4993765;28;20055;-61
2021/12/18 07:24:26;;;;;;;1.63;0.60;;;;;;;0.09;61.70;99366.25;4992561;28;20042;-60
2021/12/18 07:26:53;;;;;;;1.13;0.70;;;;;;;0.28;61.52;99363.81;4993401;28;20470;-59
2021/12/18 07:29:20;;;;;;;1.25;0.60;;;;;;;0.30;61.17;99373.44;4992143;28;20092;-59
2021/12/18 07:31:47;;;;;;;1.52;0.70;;;;;;;0.33;61.25;99372.06;4994026;28;20050;-61
2021/12/18 07:34:14;;;;;;;1.30;0.70;;;;;;;0.41;61.52;99368.78;4993853;28;20087;-59
2021/12/18 07:36:43;;;;;;;2.53;0.73;;;;;;;0.47;60.96;99368.50;4993497;28;20046;-60
2021/12/18 07:39:11;;;;;;;1.73;0.70;;;;;;;0.51;61.30;99379.75;4993566;28;20081;-59
2021/12/18 07:41:38;;;;;;;1.45;0.60;;;;;;;0.44;61.01;99379.19;4993302;28;20064;-58
2021/12/18 07:44:06;;;;;;;1.63;0.88;;;;;;;0.32;61.29;99376.69;4992523;28;20101;-60
2021/12/18 07:46:35;;;;;;;1.25;0.60;;;;;;;0.19;61.49;99377.22;4993565;28;20423;-60
2021/12/18 07:49:03;;;;;;;1.27;0.68;;;;;;;0.22;61.53;99382.16;4991875;28;20528;-60
2021/12/18 07:51:30;;;;;;;1.38;0.90;;;;;;;0.24;61.29;99379.97;4993821;28;20046;-58
2021/12/18 07:53:58;;;;;;;1.17;0.80;;;;;;;0.13;61.49;99372.81;4991684;28;20437;-59
2021/12/18 07:56:25;;;;;;;1.45;0.70;;;;;;;0.19;61.84;99374.47;4993409;28;20062;-60
2021/12/18 07:58:53;;;;;;;1.02;0.65;;;;;;;0.14;61.96;99369.00;4993082;28;20062;-60
2021/12/18 08:01:20;;;;;;;1.67;0.88;;;;;;;-0.01;62.25;99352.53;4993075;28;20421;-60
2021/12/18 08:03:48;;;;;;;2.60;1.10;;;;;;;-0.03;62.75;99362.91;4992955;28;20057;-60
2021/12/18 08:06:16;;;;;;;1.38;0.80;;;;;;;-0.08;63.31;99365.66;4993343;28;20054;-58
2021/12/18 08:08:43;;;;;;;3.17;1.00;;;;;;;-0.07;63.75;99361.81;4993250;28;20065;-60
2021/12/18 08:11:10;;;;;;;3.90;1.38;;;;;;;-0.05;63.94;99356.91;4993292;28;20088;-60
2021/12/18 08:13:37;;;;;;;5.47;1.30;;;;;;;-0.04;63.90;99350.34;4993267;28;20061;-60
2021/12/18 08:16:04;;;;;;;2.10;1.23;;;;;;;-0.03;64.14;99346.50;4993205;28;20128;-61
2021/12/18 08:18:31;;;;;;;2.33;1.15;;;;;;;0.05;64.32;99359.66;4992806;28;20046;-59
2021/12/18 08:20:58;;;;;;;2.70;1.17;;;;;;;0.10;64.12;99345.19;4992787;28;20072;-60
2021/12/18 08:23:25;;;;;;;2.42;1.20;;;;;;;0.06;64.18;99352.28;4992675;28;20144;-60
2021/12/18 08:25:52;;;;;;;1.75;0.85;;;;;;;-0.04;65.10;99339.41;4992018;28;20085;-59
2021/12/18 08:28:19;;;;;;;3.85;1.48;;;;;;;-0.04;64.97;99340.25;4993006;28;20069;-61
2021/12/18 08:30:46;;;;;;;2.00;0.90;;;;;;;-0.04;65.05;99339.41;4992433;28;20042;-61
2021/12/18 08:33:13;;;;;;;1.48;0.88;;;;;;;-0.10;65.71;99326.81;4992499;28;20046;-59
2021/12/18 08:35:40;;;;;;;1.30;0.82;;;;;;;-0.22;66.03;99320.75;4992326;28;20104;-59
2021/12/18 08:38:07;;;;;;;1.70;0.98;;;;;;;-0.30;66.61;99319.38;4990730;28;20137;-59
2021/12/18 08:40:35;;;;;;;1.83;1.00;;;;;;;-0.38;67.09;99313.63;4992135;28;20070;-59
2021/12/18 08:43:03;;;;;;;2.05;1.00;;;;;;;-0.35;66.81;99313.09;4992599;28;20050;-63
2021/12/18 08:45:30;;;;;;;2.38;1.00;;;;;;;-0.32;67.19;99305.16;4992044;28;20058;-63
2021/12/18 08:47:57;;;;;;;1.73;0.90;;;;;;;-0.23;66.61;99311.72;4992330;28;20116;-63
2021/12/18 08:50:24;;;;;;;3.10;1.10;;;;;;;-0.11;66.43;99311.50;4990365;28;20074;-62
2021/12/18 08:52:52;;;;;;;5.80;2.58;;;;;;;-0.08;66.99;99305.50;4992616;28;20057;-62
2021/12/18 08:55:21;;;;;;;7.90;1.48;;;;;;;-0.06;66.91;99300.56;4991992;28;20050;-63
2021/12/18 08:57:50;;;;;;;3.03;1.30;;;;;;;-0.02;66.52;99291.56;4992340;28;20049;-63
2021/12/18 09:00:20;;;;;;;2.22;0.85;;;;;;;-0.08;66.60;99287.19;4991975;28;20050;-62
2021/12/18 09:02:48;;;;;;;1.60;0.82;;;;;;;-0.16;67.15;99279.53;4989044;28;20145;-63
2021/12/18 09:05:16;;;;;;;2.53;1.30;;;;;;;-0.16;67.14;99286.88;4990500;28;20101;-63
2021/12/18 09:07:43;;;;;;;3.20;1.17;;;;;;;-0.23;66.75;99275.41;4990572;28;20480;-63
2021/12/18 09:10:11;;;;;;;2.92;1.58;;;;;;;-0.35;67.30;99272.09;4992306;28;20060;-62
2021/12/18 09:12:38;;;;;;;3.88;1.08;;;;;;;-0.37;67.44;99274.25;4991703;28;20081;-63
2021/12/18 09:15:06;;;;;;;5.80;2.58;;;;;;;-0.36;67.61;99260.34;4992049;28;20054;-63
2021/12/18 09:17:33;;;;;;;5.72;2.25;;;;;;;-0.21;67.59;99263.09;4992060;28;20057;-62
2021/12/18 09:20:00;;;;;;;2.17;1.20;;;;;;;-0.13;66.79;99269.94;4982694;28;20465;-62
2021/12/18 09:22:26;;;;;;;2.85;1.02;;;;;;;-0.11;66.66;99259.59;4974179;28;20046;-59
2021/12/18 09:24:54;;;;;;;1.58;0.93;;;;;;;-0.21;66.60;99251.34;4974604;28;20058;-58
2021/12/18 09:27:22;;;;;;;3.08;1.60;;;;;;;-0.19;67.27;99260.09;4991665;28;20418;-58
2021/12/18 09:29:49;;;;;;;3.10;1.17;;;;;;;-0.17;66.45;99257.94;4992200;28;20070;-58
2021/12/18 09:32:16;;;;;;;2.10;1.17;;;;;;;-0.11;66.78;99252.19;4992012;28;20081;-59
2021/12/18 09:34:43;;;;;;;9.95;4.03;;;;;;;-0.04;66.40;99251.94;4991814;28;20054;-59
2021/12/18 09:37:10;;;;;;;2.60;1.50;;;;;;;-0.01;66.75;99241.28;4989902;28;20109;-59
2021/12/18 09:39:37;;;;;;;3.70;1.63;;;;;;;-0.12;66.44;99236.88;4992197;28;20049;-61
2021/12/18 09:42:04;;;;;;;3.88;1.92;;;;;;;-0.03;66.71;99248.09;4991904;28;20050;-57
2021/12/18 09:44:33;;;;;;;2.95;1.50;;;;;;;-0.02;66.24;99238.81;4991699;28;20156;-60
2021/12/18 09:47:02;;;;;;;3.45;1.50;;;;;;;-0.03;66.72;99235.25;4992072;28;20057;-60
2021/12/18 09:49:30;;;;;;;3.30;1.42;;;;;;;0.00;66.72;99231.97;4991583;28;20042;-59
2021/12/18 09:51:58;;;;;;;6.28;1.30;;;;;;;0.03;66.64;99230.63;4994259;28;20082;-59
2021/12/18 09:54:25;;;;;;;3.22;1.60;;;;;;;0.06;66.64;99229.25;4995180;28;20061;-59
2021/12/18 09:56:53;;;;;;;11.75;1.70;;;;;;;0.03;66.48;99230.63;4996084;28;20046;-59
2021/12/18 09:59:20;;;;;;;2.85;1.33;;;;;;;0.03;66.51;99222.44;4995012;28;20051;-59
2021/12/18 10:01:48;;;;;;;4.30;1.30;;;;;;;-0.05;66.21;99226.50;4994339;28;20054;-58
2021/12/18 10:04:30;;;;;;;2.95;1.50;;;;;;;-0.11;66.41;99215.84;4995077;28;20181;-58
2021/12/18 10:07:00;;;;;;;26.00;8.80;;;;;;;-0.15;66.03;99222.91;4995625;28;20082;-60
2021/12/18 10:09:34;;;;;;;4.57;1.40;;;;;;;-0.22;65.83;99222.38;4995313;28;20390;-58
2021/12/18 10:12:11;;;;;;;4.45;1.35;;;;;;;-0.29;65.92;99221.84;4995680;28;20050;-59
2021/12/18 10:14:54;;;;;;;3.22;1.35;;;;;;;-0.35;65.99;99223.72;4995106;28;20064;-59
2021/12/18 10:17:21;;;;;;;1.65;0.90;;;;;;;-0.42;66.15;99222.31;4994983;28;20056;-60
2021/12/18 10:19:49;;;;;;;2.10;1.00;;;;;;;-0.42;65.94;99222.31;4995092;28;20141;-60
2021/12/18 10:22:16;;;;;;;4.63;1.25;;;;;;;-0.43;66.43;99216.06;4995044;28;20386;-60
2021/12/18 10:24:46;;;;;;;2.78;1.25;;;;;;;-0.40;66.03;99203.75;4993172;28;20058;-56
2021/12/18 10:27:24;;;;;;;1.67;0.80;;;;;;;-0.45;65.52;99211.94;4995745;28;20504;-58
2021/12/18 10:29:53;;;;;;;1.85;0.95;;;;;;;-0.53;65.54;99210.56;4992479;28;20093;-55
2021/12/18 10:32:24;;;;;;;1.25;0.73;;;;;;;-0.52;65.53;99216.84;4995126;28;20116;-60
2021/12/18 10:34:56;;;;;;;1.23;0.70;;;;;;;-0.55;65.19;99211.91;4991809;28;20150;-57
2021/12/18 10:37:31;;;;;;;1.52;0.88;;;;;;;-0.60;64.95;99215.47;4992922;28;20573;-58
2021/12/18 10:40:07;;;;;;;1.30;0.90;;;;;;;-0.50;65.13;99209.22;4992927;28;20135;-59
2021/12/18 10:42:39;;;;;;;2.38;1.35;;;;;;;-0.51;65.10;99208.38;4994426;28;20584;-59
2021/12/18 10:45:12;;;;;;;4.07;1.95;;;;;;;-0.61;65.21;99207.53;4994744;28;20133;-60
2021/12/18 10:47:53;;;;;;;4.30;1.60;;;;;;;-0.68;65.46;99217.91;4994461;28;20548;-60
2021/12/18 10:50:35;;;;;;;1.88;1.00;;;;;;;-0.58;65.09;99207.81;4993291;28;20050;-58
2021/12/18 10:53:02;;;;;;;4.65;1.52;;;;;;;-0.46;64.77;99215.78;4993605;28;20058;-60
2021/12/18 10:55:44;;;;;;;2.80;1.00;;;;;;;-0.40;64.08;99204.59;4994695;28;20050;-59
2021/12/18 10:58:18;;;;;;;2.88;1.10;;;;;;;-0.30;64.49;99198.31;4991397;28;20054;-60
2021/12/18 11:00:47;;;;;;;3.38;1.50;;;;;;;-0.33;64.33;99202.41;4991254;28;20042;-58
2021/12/18 11:03:20;;;;;;;4.05;1.00;;;;;;;-0.38;63.96;99199.66;4989735;28;20068;-59
2021/12/18 11:06:08;;;;;;;3.40;0.95;;;;;;;-0.39;64.09;99197.19;4994293;28;20082;-59
2021/12/18 11:08:48;;;;;;;1.73;0.90;;;;;;;-0.45;63.94;99203.75;5008688;28;20060;-57
2021/12/18 11:14:05;;;;;;;3.03;1.33;;;;;;;-0.51;63.14;99191.16;4994047;28;20046;-59
2021/12/18 11:16:36;;;;;;;2.00;0.90;;;;;;;-0.52;62.98;99190.34;4994325;28;20052;-59
2021/12/18 11:19:04;;;;;;;3.67;0.80;;;;;;;-0.54;63.08;99186.22;4993077;28;20141;-61
2021/12/18 11:21:33;;;;;;;1.60;0.70;;;;;;;-0.56;62.12;99188.44;4993451;28;20133;-57
2021/12/18 11:24:06;;;;;;;1.05;0.57;;;;;;;-0.63;62.04;99187.84;4992695;28;20050;-59
2021/12/18 11:26:57;;;;;;;1.20;0.70;;;;;;;-0.66;62.11;99182.94;4993264;28;20520;-59
2021/12/18 11:29:40;;;;;;;;;;;;;;;-0.76;61.96;99177.44;4993898;28;20050;-58
2021/12/18 11:32:29;;;;;;;1.20;0.70;;;;;;;-0.75;62.16;99169.00;4994034;28;19925;-60
2021/12/18 11:34:59;;;;;;;0.98;0.65;;;;;;;-0.74;61.76;99170.63;4994024;28;20141;-64
2021/12/18 11:37:33;;;;;;;3.97;0.70;;;;;;;-0.70;62.15;99170.91;4993857;28;20133;-59
2021/12/18 11:40:04;;;;;;;0.82;0.60;;;;;;;-0.70;61.75;99170.91;4990821;28;20054;-60
2021/12/18 11:42:33;;;;;;;0.93;0.70;;;;;;;-0.72;61.87;99173.09;4993409;28;20517;-58
2021/12/18 11:45:03;;;;;;;0.82;0.60;;;;;;;-0.78;62.28;99174.97;4988793;28;20069;-59
2021/12/18 11:47:39;;;;;;;2.97;2.00;;;;;;;-0.80;61.83;99176.34;4993125;28;20046;-59
2021/12/18 11:50:24;;;;;;;1.63;0.80;;;;;;;-0.82;61.88;99168.44;4991366;28;20289;-60
2021/12/18 11:52:59;;;;;;;2.03;0.70;;;;;;;-0.84;61.84;99170.59;4993053;28;20050;-58
2021/12/18 11:55:49;;;;;;;3.83;1.00;;;;;;;-0.79;62.05;99169.78;4993716;28;20137;-59
2021/12/18 11:58:23;;;;;;;11.30;2.80;;;;;;;-0.77;61.79;99164.91;4993145;28;20053;-60
2021/12/18 12:00:59;;;;;;;14.48;5.07;;;;;;;-0.72;61.90;99151.22;4991639;28;20465;-59
2021/12/18 12:03:43;;;;;;;25.00;7.25;;;;;;;-0.66;61.94;99158.34;4993514;28;20124;-61
2021/12/18 12:06:24;;;;;;;12.27;3.17;;;;;;;-0.67;62.20;99146.63;4993139;28;20518;-60
2021/12/18 12:09:42;;;;;;;20.95;5.82;;;;;;;-0.64;62.27;99153.44;4993061;28;20133;-60
2021/12/18 12:12:13;;;;;;;12.55;3.83;;;;;;;-0.65;62.36;99146.34;4992922;28;20053;-60
2021/12/18 12:14:42;;;;;;;11.02;3.22;;;;;;;-0.62;62.79;99140.34;4992308;28;20050;-60
2021/12/18 12:17:25;;;;;;;13.00;2.80;;;;;;;-0.59;63.12;99135.16;4993752;28;20104;-59
2021/12/18 12:19:56;;;;;;;2.67;1.13;;;;;;;-0.64;62.98;99134.34;4993130;28;20054;-60
2021/12/18 12:22:52;;;;;;;3.92;1.60;;;;;;;-0.76;63.75;99128.28;4993209;28;20620;-59
2021/12/18 12:25:43;;;;;;;6.32;2.25;;;;;;;-0.80;63.84;99128.00;4989145;28;20050;-58
2021/12/18 12:28:09;;;;;;;;;;;;;;;-0.88;64.05;99130.44;4993034;28;20129;-59
2021/12/18 12:30:59;;;;;;;13.88;5.18;;;;;;;-0.92;64.67;99123.91;4992686;28;19984;-60
2021/12/18 12:33:35;;;;;;;12.80;4.88;;;;;;;-0.97;65.24;99118.41;4989654;28;20136;-59